sensor_id;sensor_type;location;lat;lon;timestamp;temperature;humidity
37938;DHT22;23763;48.130;11.602;2022-07-23T00:00:15;25.10;92.60
37938;DHT22;23763;48.130;11.602;2022-07-23T00:02:48;25.00;92.70
37938;DHT22;23763;48.130;11.602;2022-07-23T00:05:14;25.00;92.70
37938;DHT22;23763;48.130;11.602;2022-07-23T00:07:40;25.00;92.60
37938;DHT22;23763;48.130;11.602;2022-07-23T00:10:06;24.90;92.60
37938;DHT22;23763;48.130;11.602;2022-07-23T00:12:32;24.90;92.60
37938;DHT22;23763;48.130;11.602;2022-07-23T00:14:58;24.80;92.50
37938;DHT22;23763;48.130;11.602;2022-07-23T00:17:24;24.80;92.50
37938;DHT22;23763;48.130;11.602;2022-07-23T00:19:50;24.80;92.40
37938;DHT22;23763;48.130;11.602;2022-07-23T00:22:16;24.80;92.80
37938;DHT22;23763;48.130;11.602;2022-07-23T00:24:41;24.80;92.30
37938;DHT22;23763;48.130;11.602;2022-07-23T00:27:07;24.80;91.90
37938;DHT22;23763;48.130;11.602;2022-07-23T00:29:33;24.80;91.90
37938;DHT22;23763;48.130;11.602;2022-07-23T00:31:58;24.80;91.90
37938;DHT22;23763;48.130;11.602;2022-07-23T00:34:24;24.80;91.70
37938;DHT22;23763;48.130;11.602;2022-07-23T00:36:50;24.80;91.50
37938;DHT22;23763;48.130;11.602;2022-07-23T00:39:15;24.80;91.70
37938;DHT22;23763;48.130;11.602;2022-07-23T00:41:41;24.70;91.80
37938;DHT22;23763;48.130;11.602;2022-07-23T00:44:21;24.70;91.80
37938;DHT22;23763;48.130;11.602;2022-07-23T00:46:50;24.70;91.50
37938;DHT22;23763;48.130;11.602;2022-07-23T00:49:24;24.70;91.50
37938;DHT22;23763;48.130;11.602;2022-07-23T00:51:51;24.80;91.30
37938;DHT22;23763;48.130;11.602;2022-07-23T00:54:17;24.80;91.30
37938;DHT22;23763;48.130;11.602;2022-07-23T00:56:44;24.80;91.90
37938;DHT22;23763;48.130;11.602;2022-07-23T00:59:11;24.80;92.10
37938;DHT22;23763;48.130;11.602;2022-07-23T01:01:37;24.80;92.40
37938;DHT22;23763;48.130;11.602;2022-07-23T01:04:03;24.70;92.50
37938;DHT22;23763;48.130;11.602;2022-07-23T01:06:32;24.70;92.60
37938;DHT22;23763;48.130;11.602;2022-07-23T01:09:00;24.80;92.60
37938;DHT22;23763;48.130;11.602;2022-07-23T01:11:25;24.80;92.60
37938;DHT22;23763;48.130;11.602;2022-07-23T01:13:51;24.80;92.60
37938;DHT22;23763;48.130;11.602;2022-07-23T01:16:17;24.80;92.60
37938;DHT22;23763;48.130;11.602;2022-07-23T01:18:42;24.70;92.60
37938;DHT22;23763;48.130;11.602;2022-07-23T01:21:10;24.70;92.70
37938;DHT22;23763;48.130;11.602;2022-07-23T01:23:38;24.80;93.00
37938;DHT22;23763;48.130;11.602;2022-07-23T01:26:04;24.70;93.30
37938;DHT22;23763;48.130;11.602;2022-07-23T01:28:30;24.70;93.40
37938;DHT22;23763;48.130;11.602;2022-07-23T01:30:56;24.50;92.30
37938;DHT22;23763;48.130;11.602;2022-07-23T01:33:21;24.40;92.10
37938;DHT22;23763;48.130;11.602;2022-07-23T01:35:47;24.30;91.70
37938;DHT22;23763;48.130;11.602;2022-07-23T01:38:13;23.80;92.20
37938;DHT22;23763;48.130;11.602;2022-07-23T01:40:39;23.50;92.80
37938;DHT22;23763;48.130;11.602;2022-07-23T01:43:04;23.10;93.00
37938;DHT22;23763;48.130;11.602;2022-07-23T01:45:30;23.00;92.20
37938;DHT22;23763;48.130;11.602;2022-07-23T01:47:56;22.90;92.30
37938;DHT22;23763;48.130;11.602;2022-07-23T01:50:21;22.90;92.90
37938;DHT22;23763;48.130;11.602;2022-07-23T01:52:47;22.80;93.40
37938;DHT22;23763;48.130;11.602;2022-07-23T01:55:13;22.70;93.90
37938;DHT22;23763;48.130;11.602;2022-07-23T01:57:39;22.60;94.60
37938;DHT22;23763;48.130;11.602;2022-07-23T02:00:05;22.50;95.30
37938;DHT22;23763;48.130;11.602;2022-07-23T02:02:31;22.40;95.60
37938;DHT22;23763;48.130;11.602;2022-07-23T02:04:56;22.30;96.20
37938;DHT22;23763;48.130;11.602;2022-07-23T02:07:22;22.30;96.60
37938;DHT22;23763;48.130;11.602;2022-07-23T02:09:48;22.30;96.80
37938;DHT22;23763;48.130;11.602;2022-07-23T02:12:13;22.20;97.70
37938;DHT22;23763;48.130;11.602;2022-07-23T02:14:39;22.20;99.10
37938;DHT22;23763;48.130;11.602;2022-07-23T02:17:05;22.10;99.90
37938;DHT22;23763;48.130;11.602;2022-07-23T02:19:30;22.00;99.90
37938;DHT22;23763;48.130;11.602;2022-07-23T02:21:56;21.80;99.90
37938;DHT22;23763;48.130;11.602;2022-07-23T02:24:22;21.70;99.90
37938;DHT22;23763;48.130;11.602;2022-07-23T02:26:47;21.60;99.90
37938;DHT22;23763;48.130;11.602;2022-07-23T02:29:13;21.60;99.90
37938;DHT22;23763;48.130;11.602;2022-07-23T02:31:39;21.60;99.90
37938;DHT22;23763;48.130;11.602;2022-07-23T02:34:05;21.50;99.90
37938;DHT22;23763;48.130;11.602;2022-07-23T02:36:31;21.50;99.90
37938;DHT22;23763;48.130;11.602;2022-07-23T02:38:57;21.30;99.90
37938;DHT22;23763;48.130;11.602;2022-07-23T02:41:23;21.20;99.90
37938;DHT22;23763;48.130;11.602;2022-07-23T02:43:49;21.10;99.90
37938;DHT22;23763;48.130;11.602;2022-07-23T02:46:14;21.10;99.90
37938;DHT22;23763;48.130;11.602;2022-07-23T02:48:40;21.10;99.90
37938;DHT22;23763;48.130;11.602;2022-07-23T02:51:06;21.10;99.90
37938;DHT22;23763;48.130;11.602;2022-07-23T02:53:31;21.00;99.90
37938;DHT22;23763;48.130;11.602;2022-07-23T02:55:57;21.00;99.90
37938;DHT22;23763;48.130;11.602;2022-07-23T02:58:23;21.00;99.90
37938;DHT22;23763;48.130;11.602;2022-07-23T03:00:50;21.10;99.90
37938;DHT22;23763;48.130;11.602;2022-07-23T03:03:16;21.10;99.90
37938;DHT22;23763;48.130;11.602;2022-07-23T03:05:41;20.80;99.90
37938;DHT22;23763;48.130;11.602;2022-07-23T03:08:07;20.20;99.90
37938;DHT22;23763;48.130;11.602;2022-07-23T03:10:33;20.00;99.90
37938;DHT22;23763;48.130;11.602;2022-07-23T03:12:59;19.80;99.90
37938;DHT22;23763;48.130;11.602;2022-07-23T03:15:24;19.80;99.90
37938;DHT22;23763;48.130;11.602;2022-07-23T03:17:50;19.80;99.90
37938;DHT22;23763;48.130;11.602;2022-07-23T03:20:15;19.80;99.90
37938;DHT22;23763;48.130;11.602;2022-07-23T03:22:41;19.90;99.90
37938;DHT22;23763;48.130;11.602;2022-07-23T03:25:08;19.90;99.90
37938;DHT22;23763;48.130;11.602;2022-07-23T03:27:33;20.00;99.90
37938;DHT22;23763;48.130;11.602;2022-07-23T03:29:59;20.10;99.90
37938;DHT22;23763;48.130;11.602;2022-07-23T03:32:26;20.10;99.90
37938;DHT22;23763;48.130;11.602;2022-07-23T03:34:51;20.10;99.90
37938;DHT22;23763;48.130;11.602;2022-07-23T03:37:18;20.10;99.90
37938;DHT22;23763;48.130;11.602;2022-07-23T03:39:44;20.20;99.90
37938;DHT22;23763;48.130;11.602;2022-07-23T03:42:10;20.30;99.90
37938;DHT22;23763;48.130;11.602;2022-07-23T03:44:36;20.30;99.90
37938;DHT22;23763;48.130;11.602;2022-07-23T03:47:03;20.40;99.90
37938;DHT22;23763;48.130;11.602;2022-07-23T03:49:29;20.40;99.90
37938;DHT22;23763;48.130;11.602;2022-07-23T03:51:55;20.50;99.90
37938;DHT22;23763;48.130;11.602;2022-07-23T03:54:21;20.40;99.90
37938;DHT22;23763;48.130;11.602;2022-07-23T03:56:46;20.40;99.90
37938;DHT22;23763;48.130;11.602;2022-07-23T03:59:12;20.40;99.90
37938;DHT22;23763;48.130;11.602;2022-07-23T04:01:38;20.50;99.90
37938;DHT22;23763;48.130;11.602;2022-07-23T04:04:04;20.50;99.90
37938;DHT22;23763;48.130;11.602;2022-07-23T04:06:30;20.50;99.90
37938;DHT22;23763;48.130;11.602;2022-07-23T04:08:56;20.50;99.90
37938;DHT22;23763;48.130;11.602;2022-07-23T04:11:21;20.60;99.90
37938;DHT22;23763;48.130;11.602;2022-07-23T04:13:47;20.70;99.90
37938;DHT22;23763;48.130;11.602;2022-07-23T04:16:13;20.80;99.90
37938;DHT22;23763;48.130;11.602;2022-07-23T04:18:38;20.70;99.90
37938;DHT22;23763;48.130;11.602;2022-07-23T04:21:04;20.70;99.90
37938;DHT22;23763;48.130;11.602;2022-07-23T04:23:30;20.70;99.90
37938;DHT22;23763;48.130;11.602;2022-07-23T04:25:55;20.70;99.90
37938;DHT22;23763;48.130;11.602;2022-07-23T04:28:21;20.80;99.90
37938;DHT22;23763;48.130;11.602;2022-07-23T04:30:47;20.80;99.90
37938;DHT22;23763;48.130;11.602;2022-07-23T04:33:13;20.80;99.90
37938;DHT22;23763;48.130;11.602;2022-07-23T04:35:39;20.80;99.90
37938;DHT22;23763;48.130;11.602;2022-07-23T04:38:04;20.90;99.90
37938;DHT22;23763;48.130;11.602;2022-07-23T04:40:30;21.00;99.90
37938;DHT22;23763;48.130;11.602;2022-07-23T04:42:56;21.10;99.90
37938;DHT22;23763;48.130;11.602;2022-07-23T04:45:22;21.10;99.90
37938;DHT22;23763;48.130;11.602;2022-07-23T04:47:51;21.10;99.90
37938;DHT22;23763;48.130;11.602;2022-07-23T04:50:16;21.20;99.90
37938;DHT22;23763;48.130;11.602;2022-07-23T04:52:47;21.30;99.90
37938;DHT22;23763;48.130;11.602;2022-07-23T04:55:12;21.20;99.90
37938;DHT22;23763;48.130;11.602;2022-07-23T04:57:38;21.30;99.90
37938;DHT22;23763;48.130;11.602;2022-07-23T05:00:04;21.40;99.90
37938;DHT22;23763;48.130;11.602;2022-07-23T05:02:30;21.40;99.90
37938;DHT22;23763;48.130;11.602;2022-07-23T05:04:56;21.40;99.90
37938;DHT22;23763;48.130;11.602;2022-07-23T05:07:21;21.40;99.90
37938;DHT22;23763;48.130;11.602;2022-07-23T05:09:47;21.50;99.90
37938;DHT22;23763;48.130;11.602;2022-07-23T05:12:13;21.60;99.90
37938;DHT22;23763;48.130;11.602;2022-07-23T05:14:39;21.60;99.90
37938;DHT22;23763;48.130;11.602;2022-07-23T05:17:05;21.70;99.90
37938;DHT22;23763;48.130;11.602;2022-07-23T05:19:33;21.70;99.90
37938;DHT22;23763;48.130;11.602;2022-07-23T05:21:59;21.80;99.90
37938;DHT22;23763;48.130;11.602;2022-07-23T05:24:25;21.70;99.90
37938;DHT22;23763;48.130;11.602;2022-07-23T05:26:51;21.80;99.90
37938;DHT22;23763;48.130;11.602;2022-07-23T05:29:17;21.80;99.90
37938;DHT22;23763;48.130;11.602;2022-07-23T05:31:42;21.70;99.90
37938;DHT22;23763;48.130;11.602;2022-07-23T05:34:08;21.80;99.90
37938;DHT22;23763;48.130;11.602;2022-07-23T05:36:34;21.70;99.90
37938;DHT22;23763;48.130;11.602;2022-07-23T05:38:59;21.70;99.90
37938;DHT22;23763;48.130;11.602;2022-07-23T05:41:25;21.80;99.90
37938;DHT22;23763;48.130;11.602;2022-07-23T05:43:51;21.80;99.90
37938;DHT22;23763;48.130;11.602;2022-07-23T05:46:17;21.90;99.90
37938;DHT22;23763;48.130;11.602;2022-07-23T05:48:42;21.90;99.90
37938;DHT22;23763;48.130;11.602;2022-07-23T05:51:08;21.90;99.90
37938;DHT22;23763;48.130;11.602;2022-07-23T05:53:35;21.90;99.90
37938;DHT22;23763;48.130;11.602;2022-07-23T05:56:01;22.00;99.90
37938;DHT22;23763;48.130;11.602;2022-07-23T05:58:27;22.00;99.90
37938;DHT22;23763;48.130;11.602;2022-07-23T06:00:53;22.00;99.90
37938;DHT22;23763;48.130;11.602;2022-07-23T06:03:18;22.00;99.90
37938;DHT22;23763;48.130;11.602;2022-07-23T06:05:45;22.00;99.90
37938;DHT22;23763;48.130;11.602;2022-07-23T06:08:11;22.00;99.90
37938;DHT22;23763;48.130;11.602;2022-07-23T06:10:37;22.00;99.90
37938;DHT22;23763;48.130;11.602;2022-07-23T06:13:03;22.00;99.90
37938;DHT22;23763;48.130;11.602;2022-07-23T06:15:29;22.00;99.90
37938;DHT22;23763;48.130;11.602;2022-07-23T06:17:55;22.00;99.90
37938;DHT22;23763;48.130;11.602;2022-07-23T06:20:21;22.00;99.90
37938;DHT22;23763;48.130;11.602;2022-07-23T06:22:47;22.00;99.90
37938;DHT22;23763;48.130;11.602;2022-07-23T06:25:12;21.90;99.90
37938;DHT22;23763;48.130;11.602;2022-07-23T06:27:38;21.90;99.90
37938;DHT22;23763;48.130;11.602;2022-07-23T06:30:04;21.80;99.90
37938;DHT22;23763;48.130;11.602;2022-07-23T06:32:31;21.70;99.90
37938;DHT22;23763;48.130;11.602;2022-07-23T06:34:56;21.70;99.90
37938;DHT22;23763;48.130;11.602;2022-07-23T06:37:22;21.70;99.90
37938;DHT22;23763;48.130;11.602;2022-07-23T06:39:48;21.70;99.90
37938;DHT22;23763;48.130;11.602;2022-07-23T06:42:13;21.80;99.90
37938;DHT22;23763;48.130;11.602;2022-07-23T06:44:40;21.90;99.90
37938;DHT22;23763;48.130;11.602;2022-07-23T06:47:06;21.90;99.90
37938;DHT22;23763;48.130;11.602;2022-07-23T06:49:31;21.90;99.90
37938;DHT22;23763;48.130;11.602;2022-07-23T06:51:57;21.90;99.90
37938;DHT22;23763;48.130;11.602;2022-07-23T06:54:23;21.90;99.90
37938;DHT22;23763;48.130;11.602;2022-07-23T06:56:48;21.90;99.90
37938;DHT22;23763;48.130;11.602;2022-07-23T06:59:14;22.00;99.90
37938;DHT22;23763;48.130;11.602;2022-07-23T07:01:40;22.30;99.90
37938;DHT22;23763;48.130;11.602;2022-07-23T07:04:05;22.10;99.90
37938;DHT22;23763;48.130;11.602;2022-07-23T07:06:31;22.30;99.90
37938;DHT22;23763;48.130;11.602;2022-07-23T07:08:57;22.50;99.90
37938;DHT22;23763;48.130;11.602;2022-07-23T07:11:23;22.50;99.90
37938;DHT22;23763;48.130;11.602;2022-07-23T07:13:50;22.60;99.90
37938;DHT22;23763;48.130;11.602;2022-07-23T07:16:17;22.70;99.90
37938;DHT22;23763;48.130;11.602;2022-07-23T07:18:42;22.70;99.90
37938;DHT22;23763;48.130;11.602;2022-07-23T07:21:08;22.80;99.90
37938;DHT22;23763;48.130;11.602;2022-07-23T07:23:34;22.90;99.90
37938;DHT22;23763;48.130;11.602;2022-07-23T07:26:00;23.00;99.90
37938;DHT22;23763;48.130;11.602;2022-07-23T07:28:25;22.80;99.90
37938;DHT22;23763;48.130;11.602;2022-07-23T07:30:51;22.80;99.90
37938;DHT22;23763;48.130;11.602;2022-07-23T07:33:17;22.90;99.90
37938;DHT22;23763;48.130;11.602;2022-07-23T07:35:43;23.10;99.90
37938;DHT22;23763;48.130;11.602;2022-07-23T07:38:08;23.20;99.90
37938;DHT22;23763;48.130;11.602;2022-07-23T07:40:34;23.20;99.90
37938;DHT22;23763;48.130;11.602;2022-07-23T07:43:00;23.30;99.90
37938;DHT22;23763;48.130;11.602;2022-07-23T07:45:27;23.30;99.90
37938;DHT22;23763;48.130;11.602;2022-07-23T07:47:52;23.20;99.90
37938;DHT22;23763;48.130;11.602;2022-07-23T07:50:19;23.10;99.90
37938;DHT22;23763;48.130;11.602;2022-07-23T07:52:45;23.10;99.90
37938;DHT22;23763;48.130;11.602;2022-07-23T07:55:11;23.00;99.90
37938;DHT22;23763;48.130;11.602;2022-07-23T07:57:38;23.00;99.90
37938;DHT22;23763;48.130;11.602;2022-07-23T08:00:05;23.00;99.90
37938;DHT22;23763;48.130;11.602;2022-07-23T08:02:43;23.00;99.90
37938;DHT22;23763;48.130;11.602;2022-07-23T08:05:10;23.10;99.90
37938;DHT22;23763;48.130;11.602;2022-07-23T08:07:36;23.00;99.90
37938;DHT22;23763;48.130;11.602;2022-07-23T08:10:03;23.10;99.90
37938;DHT22;23763;48.130;11.602;2022-07-23T08:12:47;23.10;99.90
37938;DHT22;23763;48.130;11.602;2022-07-23T08:15:15;23.00;99.90
37938;DHT22;23763;48.130;11.602;2022-07-23T08:17:43;23.10;99.90
37938;DHT22;23763;48.130;11.602;2022-07-23T08:20:10;23.20;99.90
37938;DHT22;23763;48.130;11.602;2022-07-23T08:25:26;23.10;99.90
37938;DHT22;23763;48.130;11.602;2022-07-23T08:27:53;23.10;99.90
37938;DHT22;23763;48.130;11.602;2022-07-23T08:30:19;23.30;99.90
37938;DHT22;23763;48.130;11.602;2022-07-23T08:33:00;23.50;99.90
37938;DHT22;23763;48.130;11.602;2022-07-23T08:35:34;23.50;99.90
37938;DHT22;23763;48.130;11.602;2022-07-23T08:38:03;23.50;99.90
37938;DHT22;23763;48.130;11.602;2022-07-23T08:40:31;23.60;99.90
37938;DHT22;23763;48.130;11.602;2022-07-23T08:42:57;23.60;99.90
37938;DHT22;23763;48.130;11.602;2022-07-23T08:45:25;23.60;99.90
37938;DHT22;23763;48.130;11.602;2022-07-23T08:47:53;23.90;99.90
37938;DHT22;23763;48.130;11.602;2022-07-23T08:50:20;24.00;99.90
37938;DHT22;23763;48.130;11.602;2022-07-23T08:52:48;24.20;99.90
37938;DHT22;23763;48.130;11.602;2022-07-23T08:55:16;24.40;99.90
37938;DHT22;23763;48.130;11.602;2022-07-23T08:57:42;24.30;99.90
37938;DHT22;23763;48.130;11.602;2022-07-23T09:00:08;24.20;99.90
37938;DHT22;23763;48.130;11.602;2022-07-23T09:02:42;24.10;99.90
37938;DHT22;23763;48.130;11.602;2022-07-23T09:05:09;24.00;99.90
37938;DHT22;23763;48.130;11.602;2022-07-23T09:07:37;24.00;99.90
37938;DHT22;23763;48.130;11.602;2022-07-23T09:10:08;24.00;99.90
37938;DHT22;23763;48.130;11.602;2022-07-23T09:12:34;23.90;99.90
37938;DHT22;23763;48.130;11.602;2022-07-23T09:15:08;24.10;99.90
37938;DHT22;23763;48.130;11.602;2022-07-23T09:17:39;24.20;99.90
37938;DHT22;23763;48.130;11.602;2022-07-23T09:20:09;24.30;99.90
37938;DHT22;23763;48.130;11.602;2022-07-23T09:22:35;24.20;99.90
37938;DHT22;23763;48.130;11.602;2022-07-23T09:25:06;24.20;99.90
37938;DHT22;23763;48.130;11.602;2022-07-23T09:27:54;24.40;99.90
37938;DHT22;23763;48.130;11.602;2022-07-23T09:30:26;24.70;99.90
37938;DHT22;23763;48.130;11.602;2022-07-23T09:38:13;25.80;99.90
37938;DHT22;23763;48.130;11.602;2022-07-23T09:40:39;26.30;99.90
37938;DHT22;23763;48.130;11.602;2022-07-23T09:43:05;26.60;99.90
37938;DHT22;23763;48.130;11.602;2022-07-23T09:45:30;27.20;99.90
37938;DHT22;23763;48.130;11.602;2022-07-23T09:48:13;28.00;99.90
37938;DHT22;23763;48.130;11.602;2022-07-23T09:50:41;28.20;99.90
37938;DHT22;23763;48.130;11.602;2022-07-23T09:53:07;28.50;99.70
37938;DHT22;23763;48.130;11.602;2022-07-23T09:55:34;28.80;99.10
37938;DHT22;23763;48.130;11.602;2022-07-23T09:58:07;29.00;97.80
37938;DHT22;23763;48.130;11.602;2022-07-23T10:00:40;29.00;96.70
37938;DHT22;23763;48.130;11.602;2022-07-23T10:03:06;29.20;96.20
37938;DHT22;23763;48.130;11.602;2022-07-23T10:05:33;29.00;95.40
37938;DHT22;23763;48.130;11.602;2022-07-23T10:08:01;28.50;95.00
37938;DHT22;23763;48.130;11.602;2022-07-23T10:10:28;28.00;95.00
37938;DHT22;23763;48.130;11.602;2022-07-23T10:12:55;28.00;95.40
37938;DHT22;23763;48.130;11.602;2022-07-23T10:15:41;28.40;94.20
37938;DHT22;23763;48.130;11.602;2022-07-23T10:18:10;29.00;94.00
37938;DHT22;23763;48.130;11.602;2022-07-23T10:20:38;29.20;92.70
37938;DHT22;23763;48.130;11.602;2022-07-23T10:32:31;28.30;92.90
37938;DHT22;23763;48.130;11.602;2022-07-23T10:37:49;28.20;92.90
37938;DHT22;23763;48.130;11.602;2022-07-23T10:40:21;28.50;92.70
37938;DHT22;23763;48.130;11.602;2022-07-23T10:42:50;28.50;92.80
37938;DHT22;23763;48.130;11.602;2022-07-23T10:45:24;28.40;92.80
37938;DHT22;23763;48.130;11.602;2022-07-23T10:47:50;28.30;93.00
37938;DHT22;23763;48.130;11.602;2022-07-23T10:50:23;28.40;92.90
37938;DHT22;23763;48.130;11.602;2022-07-23T10:53:09;28.50;92.30
37938;DHT22;23763;48.130;11.602;2022-07-23T10:58:05;28.60;91.50
37938;DHT22;23763;48.130;11.602;2022-07-23T11:00:32;28.60;91.30
37938;DHT22;23763;48.130;11.602;2022-07-23T11:03:03;28.60;90.90
37938;DHT22;23763;48.130;11.602;2022-07-23T11:05:42;28.70;90.20
37938;DHT22;23763;48.130;11.602;2022-07-23T11:10:45;28.80;90.30
37938;DHT22;23763;48.130;11.602;2022-07-23T11:24:13;28.30;90.70
37938;DHT22;23763;48.130;11.602;2022-07-23T11:26:52;28.10;90.90
37938;DHT22;23763;48.130;11.602;2022-07-23T11:32:09;27.80;91.30
37938;DHT22;23763;48.130;11.602;2022-07-23T11:34:47;27.90;91.40
37938;DHT22;23763;48.130;11.602;2022-07-23T11:37:37;27.80;91.50
37938;DHT22;23763;48.130;11.602;2022-07-23T11:40:15;27.70;91.50
37938;DHT22;23763;48.130;11.602;2022-07-23T11:42:56;27.50;91.80
37938;DHT22;23763;48.130;11.602;2022-07-23T11:45:23;27.40;91.90
37938;DHT22;23763;48.130;11.602;2022-07-23T11:47:49;27.50;92.00
37938;DHT22;23763;48.130;11.602;2022-07-23T11:50:15;27.50;92.20
37938;DHT22;23763;48.130;11.602;2022-07-23T11:52:40;27.50;92.10
37938;DHT22;23763;48.130;11.602;2022-07-23T11:55:09;27.30;92.30
37938;DHT22;23763;48.130;11.602;2022-07-23T11:57:37;27.30;92.60
37938;DHT22;23763;48.130;11.602;2022-07-23T12:00:10;27.30;92.50
37938;DHT22;23763;48.130;11.602;2022-07-23T12:02:38;27.20;92.70
37938;DHT22;23763;48.130;11.602;2022-07-23T12:05:05;27.30;92.70
37938;DHT22;23763;48.130;11.602;2022-07-23T12:07:35;27.30;92.80
37938;DHT22;23763;48.130;11.602;2022-07-23T12:10:17;27.20;92.80
37938;DHT22;23763;48.130;11.602;2022-07-23T12:15:20;27.10;93.20
37938;DHT22;23763;48.130;11.602;2022-07-23T12:17:49;26.90;93.40
37938;DHT22;23763;48.130;11.602;2022-07-23T12:20:17;26.90;93.60
37938;DHT22;23763;48.130;11.602;2022-07-23T12:22:48;27.00;93.70
37938;DHT22;23763;48.130;11.602;2022-07-23T12:25:19;27.00;93.70
37938;DHT22;23763;48.130;11.602;2022-07-23T12:27:45;27.00;93.60
37938;DHT22;23763;48.130;11.602;2022-07-23T12:30:31;26.90;94.00
37938;DHT22;23763;48.130;11.602;2022-07-23T12:32:58;26.80;94.10
37938;DHT22;23763;48.130;11.602;2022-07-23T12:35:43;26.80;94.20
37938;DHT22;23763;48.130;11.602;2022-07-23T12:38:14;26.80;94.40
37938;DHT22;23763;48.130;11.602;2022-07-23T12:40:44;26.60;94.50
37938;DHT22;23763;48.130;11.602;2022-07-23T12:45:56;26.50;94.90
37938;DHT22;23763;48.130;11.602;2022-07-23T12:51:28;26.50;94.70
37938;DHT22;23763;48.130;11.602;2022-07-23T12:54:10;26.70;94.50
37938;DHT22;23763;48.130;11.602;2022-07-23T12:56:37;26.70;94.70
37938;DHT22;23763;48.130;11.602;2022-07-23T12:59:07;26.50;94.70
37938;DHT22;23763;48.130;11.602;2022-07-23T13:01:40;26.30;95.00
37938;DHT22;23763;48.130;11.602;2022-07-23T13:06:45;26.20;95.10
37938;DHT22;23763;48.130;11.602;2022-07-23T13:09:16;26.40;95.00
37938;DHT22;23763;48.130;11.602;2022-07-23T13:11:44;26.40;95.10
37938;DHT22;23763;48.130;11.602;2022-07-23T13:14:11;26.40;95.10
37938;DHT22;23763;48.130;11.602;2022-07-23T13:16:38;26.50;94.80
37938;DHT22;23763;48.130;11.602;2022-07-23T13:19:05;26.70;94.90
37938;DHT22;23763;48.130;11.602;2022-07-23T13:21:32;26.80;94.80
37938;DHT22;23763;48.130;11.602;2022-07-23T13:23:58;26.90;94.60
37938;DHT22;23763;48.130;11.602;2022-07-23T13:26:24;26.90;94.60
37938;DHT22;23763;48.130;11.602;2022-07-23T13:28:50;26.90;94.60
37938;DHT22;23763;48.130;11.602;2022-07-23T13:31:17;26.80;94.70
37938;DHT22;23763;48.130;11.602;2022-07-23T13:33:43;26.70;94.70
37938;DHT22;23763;48.130;11.602;2022-07-23T13:36:09;26.70;94.80
37938;DHT22;23763;48.130;11.602;2022-07-23T13:38:36;26.60;95.20
37938;DHT22;23763;48.130;11.602;2022-07-23T13:41:02;26.40;95.50
37938;DHT22;23763;48.130;11.602;2022-07-23T13:43:28;26.40;95.60
37938;DHT22;23763;48.130;11.602;2022-07-23T13:45:54;26.40;95.90
37938;DHT22;23763;48.130;11.602;2022-07-23T13:48:21;26.50;95.70
37938;DHT22;23763;48.130;11.602;2022-07-23T13:50:48;26.70;95.50
37938;DHT22;23763;48.130;11.602;2022-07-23T13:53:17;27.00;95.40
37938;DHT22;23763;48.130;11.602;2022-07-23T13:55:44;27.10;95.00
37938;DHT22;23763;48.130;11.602;2022-07-23T13:58:11;27.00;95.30
37938;DHT22;23763;48.130;11.602;2022-07-23T14:00:40;26.80;95.20
37938;DHT22;23763;48.130;11.602;2022-07-23T14:03:06;26.70;95.40
37938;DHT22;23763;48.130;11.602;2022-07-23T14:05:32;26.50;95.50
37938;DHT22;23763;48.130;11.602;2022-07-23T14:07:58;26.40;95.60
37938;DHT22;23763;48.130;11.602;2022-07-23T14:10:24;26.50;95.70
37938;DHT22;23763;48.130;11.602;2022-07-23T14:12:52;26.30;95.70
37938;DHT22;23763;48.130;11.602;2022-07-23T14:15:19;26.30;96.00
37938;DHT22;23763;48.130;11.602;2022-07-23T14:17:45;26.20;96.20
37938;DHT22;23763;48.130;11.602;2022-07-23T14:20:13;26.10;96.80
37938;DHT22;23763;48.130;11.602;2022-07-23T14:22:40;26.10;96.70
37938;DHT22;23763;48.130;11.602;2022-07-23T14:25:10;25.90;96.70
37938;DHT22;23763;48.130;11.602;2022-07-23T14:27:37;25.90;96.70
37938;DHT22;23763;48.130;11.602;2022-07-23T14:30:07;25.80;97.10
37938;DHT22;23763;48.130;11.602;2022-07-23T14:32:33;25.90;96.90
37938;DHT22;23763;48.130;11.602;2022-07-23T14:34:59;26.00;96.80
37938;DHT22;23763;48.130;11.602;2022-07-23T14:37:25;26.00;96.90
37938;DHT22;23763;48.130;11.602;2022-07-23T14:39:51;26.00;96.90
37938;DHT22;23763;48.130;11.602;2022-07-23T14:42:19;25.90;97.10
37938;DHT22;23763;48.130;11.602;2022-07-23T14:44:45;26.00;97.00
37938;DHT22;23763;48.130;11.602;2022-07-23T14:47:11;26.20;97.00
37938;DHT22;23763;48.130;11.602;2022-07-23T14:49:37;26.40;96.60
37938;DHT22;23763;48.130;11.602;2022-07-23T14:52:03;26.40;96.60
37938;DHT22;23763;48.130;11.602;2022-07-23T14:54:30;26.60;96.50
37938;DHT22;23763;48.130;11.602;2022-07-23T14:56:57;26.70;96.40
37938;DHT22;23763;48.130;11.602;2022-07-23T14:59:29;27.00;95.90
37938;DHT22;23763;48.130;11.602;2022-07-23T15:01:56;27.10;95.70
37938;DHT22;23763;48.130;11.602;2022-07-23T15:04:22;27.10;95.20
37938;DHT22;23763;48.130;11.602;2022-07-23T15:06:48;26.90;95.30
37938;DHT22;23763;48.130;11.602;2022-07-23T15:09:13;26.90;95.40
37938;DHT22;23763;48.130;11.602;2022-07-23T15:11:40;26.70;95.80
37938;DHT22;23763;48.130;11.602;2022-07-23T15:14:08;26.70;95.80
37938;DHT22;23763;48.130;11.602;2022-07-23T15:16:35;26.60;96.00
37938;DHT22;23763;48.130;11.602;2022-07-23T15:19:03;26.70;95.90
37938;DHT22;23763;48.130;11.602;2022-07-23T15:21:29;26.70;96.00
37938;DHT22;23763;48.130;11.602;2022-07-23T15:23:56;26.80;95.80
37938;DHT22;23763;48.130;11.602;2022-07-23T15:26:25;26.90;95.70
37938;DHT22;23763;48.130;11.602;2022-07-23T15:28:58;27.10;95.90
37938;DHT22;23763;48.130;11.602;2022-07-23T15:31:25;27.00;95.80
37938;DHT22;23763;48.130;11.602;2022-07-23T15:33:51;26.90;96.00
37938;DHT22;23763;48.130;11.602;2022-07-23T15:36:18;26.70;96.20
37938;DHT22;23763;48.130;11.602;2022-07-23T15:38:44;26.80;96.30
37938;DHT22;23763;48.130;11.602;2022-07-23T15:41:11;26.70;96.10
37938;DHT22;23763;48.130;11.602;2022-07-23T15:43:36;26.80;96.10
37938;DHT22;23763;48.130;11.602;2022-07-23T15:46:04;26.70;96.20
37938;DHT22;23763;48.130;11.602;2022-07-23T15:48:30;26.90;96.00
37938;DHT22;23763;48.130;11.602;2022-07-23T15:50:56;27.00;96.00
37938;DHT22;23763;48.130;11.602;2022-07-23T15:53:21;27.10;95.90
37938;DHT22;23763;48.130;11.602;2022-07-23T15:55:47;27.10;95.60
37938;DHT22;23763;48.130;11.602;2022-07-23T15:58:13;27.10;95.60
37938;DHT22;23763;48.130;11.602;2022-07-23T16:00:39;27.20;95.70
37938;DHT22;23763;48.130;11.602;2022-07-23T16:03:06;27.20;95.80
37938;DHT22;23763;48.130;11.602;2022-07-23T16:05:32;27.10;95.80